Startpagina
METAR-TAF:

METAR-TAF

Vliegvelden :

Internationale Luchthaven Cuneo

Cuneo, Italië

breedte: 44-32-47N, lengte: 007-37-20E, hoogte: 386 m

Actueel weer

Dit bericht is 7 uur en het 38 minuten geleden gemaakt, om 18:50 UTC
Wind 1 kt uit variabele richting
Temperatuur 22°C
Vochtigheid 83%
Druk 1018 hPa
Zicht 10 km of meer
geen wolken onder 1500 m en geen cumulonimbus

METAR: LIMZ 251850Z VRB01KT CAVOK 22/19 Q1018

Tijdstip: 04:28 (02:28 UTC)

Verwachting

Dit bericht is 9 uur en het 28 minuten geleden gemaakt, om 17:00 UTC
Verwachting geldig van 25 om 18 UTC tot 26 om 18 UTC
Wind 5 kt uit variabele richting
Zicht 10 km of meer
geen wolken onder 1500 m en geen cumulonimbus

TAF: LIMZ 251700Z 2518/2618 VRB05KT CAVOK

Waarnemingen en weersverwachtingen van meer dan 4000 vliegvelden (METAR en TAF).

De beschikbare stations zijn de gele en rode punten op de kaart.

Ga met uw muis naar het station om de naam te zien.

Klik dan om waarnemingen en weersverwachtingen te zien.

kaart wijzigen: klik op de groene knoppen met een zwart kruis om in te zoomen, op de groene knop met een streepje om uit te zoomen of op de groene pijlen voor aangrenzende kaarten.


METAR-TAF: